Time;durP1;ratioP1;P1;durP2;ratioP2;P2;SDS_P1;SDS_P2;PMS_P1;PMS_P2;Temp;Humidity;BMP_temperature;BMP_pressure;BME280_temperature;BME280_humidity;BME280_pressure;Samples;Min_cycle;Max_cycle;Signal;HPM_P1;HPM_P2
2023/07/27 00:02:29;;;;;;;17.65;9.05;;;;;;;22.50;56.09;99410.95;1668661;86;21378;-56
2023/07/27 00:05:36;;;;;;;14.40;8.83;;;;;;;22.45;56.16;99410.97;1668634;86;21885;-56
2023/07/27 00:08:42;;;;;;;16.52;8.15;;;;;;;22.41;56.29;99413.16;1622554;88;21229;-55
2023/07/27 00:11:49;;;;;;;13.88;8.35;;;;;;;22.38;56.41;99409.54;1668715;84;21358;-55
2023/07/27 00:14:54;;;;;;;13.22;8.25;;;;;;;22.33;56.47;99407.58;1651404;87;21419;-55
2023/07/27 00:17:59;;;;;;;14.73;9.10;;;;;;;22.29;56.59;99408.41;1687218;85;21370;-57
2023/07/27 00:21:06;;;;;;;12.28;8.20;;;;;;;22.23;56.62;99411.19;1651336;87;21828;-55
2023/07/27 00:24:13;;;;;;;18.65;8.63;;;;;;;22.18;56.69;99419.53;1687106;85;21970;-54
2023/07/27 00:27:19;;;;;;;12.37;8.60;;;;;;;22.14;56.80;99423.99;1648905;87;21232;-55
2023/07/27 00:30:26;;;;;;;15.05;9.05;;;;;;;22.10;56.89;99425.64;1649012;87;21715;-55
2023/07/27 00:33:31;;;;;;;17.60;8.28;;;;;;;22.07;57.02;99422.58;1686953;85;21346;-55
2023/07/27 00:36:36;;;;;;;14.73;8.18;;;;;;;22.04;57.09;99416.16;1648838;87;21225;-55
2023/07/27 00:39:43;;;;;;;13.70;8.48;;;;;;;22.02;57.22;99414.20;1648371;87;21248;-55
2023/07/27 00:42:49;;;;;;;13.35;8.23;;;;;;;22.00;57.37;99415.87;1686541;85;21385;-55
2023/07/27 00:45:56;;;;;;;11.95;7.60;;;;;;;21.99;57.45;99418.35;1649065;87;21229;-56
2023/07/27 00:49:02;;;;;;;16.85;8.03;;;;;;;21.99;57.58;99420.32;1648378;87;21249;-56
2023/07/27 00:52:08;;;;;;;14.30;8.13;;;;;;;21.97;57.63;99416.96;1686949;85;21441;-56
2023/07/27 00:55:16;;;;;;;19.62;8.30;;;;;;;21.95;57.73;99416.39;1651345;87;21344;-56
2023/07/27 00:58:21;;;;;;;13.45;8.35;;;;;;;21.95;57.84;99419.17;1685324;85;21369;-56
2023/07/27 01:01:29;;;;;;;11.93;7.97;;;;;;;21.93;57.91;99425.02;1686630;85;21365;-56
2023/07/27 01:04:35;;;;;;;19.60;8.25;;;;;;;21.92;57.99;99421.97;1649071;87;21237;-56
2023/07/27 01:07:41;;;;;;;14.35;8.15;;;;;;;21.89;58.04;99421.13;1648308;87;21252;-56
2023/07/27 01:11:12;;;;;;;16.52;7.85;;;;;;;21.85;58.06;99425.55;1687173;85;21417;-56
2023/07/27 01:14:35;;;;;;;15.28;8.58;;;;;;;21.81;58.12;99423.03;1645270;85;21754;-56
2023/07/27 01:18:12;;;;;;;13.40;8.83;;;;;;;21.76;58.21;99424.40;1642491;87;21876;-56
2023/07/27 01:21:35;;;;;;;13.78;8.33;;;;;;;21.67;58.19;99424.61;1679791;85;21425;-56
2023/07/27 01:24:58;;;;;;;11.80;9.10;;;;;;;21.60;58.33;99417.04;1680002;85;21702;-54
2023/07/27 01:28:18;;;;;;;12.03;8.63;;;;;;;21.54;58.42;99411.16;1679875;85;21371;-55
2023/07/27 01:31:27;;;;;;;15.23;8.70;;;;;;;21.45;58.50;99398.87;1679838;85;21394;-56
2023/07/27 01:34:37;;;;;;;14.45;8.05;;;;;;;21.39;58.64;99390.18;1642315;87;21368;-56
2023/07/27 01:37:44;;;;;;;13.03;8.38;;;;;;;21.35;58.77;99388.20;1658414;85;22000;-55
2023/07/27 01:40:50;;;;;;;17.32;9.55;;;;;;;21.29;58.96;99389.30;1679980;85;21374;-56
2023/07/27 01:43:56;;;;;;;17.10;8.98;;;;;;;21.24;59.07;99394.28;1680018;85;21994;-56
2023/07/27 01:47:02;;;;;;;14.65;8.90;;;;;;;21.19;59.09;99405.38;1679968;85;21362;-57
2023/07/27 01:50:08;;;;;;;13.93;8.08;;;;;;;21.14;59.21;99398.37;1679719;85;21839;-57
2023/07/27 01:53:15;;;;;;;14.00;8.78;;;;;;;21.10;59.36;99398.64;1642340;87;21331;-56
2023/07/27 01:56:21;;;;;;;13.40;8.63;;;;;;;21.08;59.51;99402.23;1642038;87;21339;-55
2023/07/27 01:59:27;;;;;;;14.45;8.63;;;;;;;21.06;59.67;99398.87;1679408;85;21398;-55
2023/07/27 02:02:33;;;;;;;12.98;7.95;;;;;;;21.05;59.83;99401.39;1680047;85;21358;-56
2023/07/27 02:05:39;;;;;;;13.08;9.23;;;;;;;21.07;59.99;99399.18;1679375;85;21363;-56
2023/07/27 02:08:45;;;;;;;14.80;8.83;;;;;;;21.07;60.12;99399.18;1642519;87;21380;-56
2023/07/27 02:11:52;;;;;;;15.28;9.88;;;;;;;21.07;60.21;99396.40;1642448;87;21508;-56
2023/07/27 02:15:09;;;;;;;12.75;8.78;;;;;;;21.06;60.35;99397.48;1673475;85;21423;-55
2023/07/27 02:18:21;;;;;;;17.32;9.30;;;;;;;21.09;60.49;99414.22;1622773;88;21384;-55
2023/07/27 02:21:28;;;;;;;13.73;9.70;;;;;;;21.10;60.64;99408.93;1669068;86;21375;-55
2023/07/27 02:24:33;;;;;;;14.58;9.33;;;;;;;21.09;60.82;99410.86;1668661;86;21363;-56
2023/07/27 02:27:40;;;;;;;15.25;9.25;;;;;;;21.12;60.97;99422.84;1622837;88;21590;-56
2023/07/27 02:30:46;;;;;;;12.47;8.00;;;;;;;21.15;61.12;99427.06;1668900;86;21355;-55
2023/07/27 02:33:54;;;;;;;12.60;8.80;;;;;;;21.15;61.24;99426.52;1622595;88;21412;-56
2023/07/27 02:36:59;;;;;;;12.33;9.08;;;;;;;21.17;61.33;99427.64;1669429;86;21918;-56
2023/07/27 02:40:05;;;;;;;16.10;8.60;;;;;;;21.18;61.43;99423.73;1622728;88;21253;-56
2023/07/27 02:43:11;;;;;;;14.28;9.15;;;;;;;21.16;61.54;99412.88;1668604;86;21418;-56
2023/07/27 02:46:18;;;;;;;14.70;9.20;;;;;;;21.17;61.61;99403.41;1622805;88;21404;-57
2023/07/27 02:49:25;;;;;;;13.15;8.88;;;;;;;21.17;61.73;99420.11;1668702;86;21346;-56
2023/07/27 02:52:32;;;;;;;13.48;8.58;;;;;;;21.18;61.84;99428.77;1622530;88;21277;-56
2023/07/27 02:55:37;;;;;;;14.58;9.80;;;;;;;21.18;62.00;99415.39;1669090;86;21390;-56
2023/07/27 02:58:43;;;;;;;21.82;12.05;;;;;;;21.19;62.09;99423.47;1668621;86;21386;-57
2023/07/27 03:01:50;;;;;;;19.37;11.20;;;;;;;21.21;62.19;99440.75;1668565;86;21391;-57
2023/07/27 03:04:57;;;;;;;19.12;11.73;;;;;;;21.24;62.32;99436.03;1668628;86;21422;-53
2023/07/27 03:08:04;;;;;;;20.57;11.48;;;;;;;21.25;62.34;99418.22;1622637;88;21318;-55
2023/07/27 03:11:12;;;;;;;19.20;12.37;;;;;;;21.27;62.44;99422.97;1668636;86;21342;-56
2023/07/27 03:14:19;;;;;;;19.55;12.13;;;;;;;21.31;62.50;99435.23;1622635;88;21257;-56
2023/07/27 03:17:26;;;;;;;17.25;12.30;;;;;;;21.35;62.63;99418.83;1655867;85;21224;-56
2023/07/27 03:20:32;;;;;;;18.07;11.35;;;;;;;21.40;62.77;99411.91;1641935;87;21360;-56
2023/07/27 03:23:33;;;;;;;17.37;11.30;;;;;;;21.44;62.86;99401.89;1680091;85;21883;-55
2023/07/27 03:26:39;;;;;;;16.05;10.63;;;;;;;21.43;62.84;99388.55;1679870;85;21382;-56
2023/07/27 03:29:46;;;;;;;21.70;10.93;;;;;;;21.43;62.90;99387.70;1680081;85;21362;-56
2023/07/27 03:32:53;;;;;;;14.80;10.00;;;;;;;21.43;62.99;99387.70;1679803;85;22206;-57
2023/07/27 03:36:00;;;;;;;13.20;10.15;;;;;;;21.44;63.16;99397.17;1679648;85;21363;-57
2023/07/27 03:39:07;;;;;;;15.28;9.43;;;;;;;21.48;63.31;99370.48;1642383;87;21888;-57
2023/07/27 03:42:15;;;;;;;19.77;10.13;;;;;;;21.50;63.41;99384.95;1642418;87;21351;-57
2023/07/27 03:45:24;;;;;;;14.50;10.80;;;;;;;21.54;63.53;99366.59;1680058;85;21425;-57
2023/07/27 03:48:31;;;;;;;14.70;10.25;;;;;;;21.59;63.69;99379.70;1679073;85;22013;-57
2023/07/27 03:51:36;;;;;;;15.08;10.98;;;;;;;21.67;63.80;99374.47;1679476;85;21440;-57
2023/07/27 03:54:45;;;;;;;16.73;11.05;;;;;;;21.75;63.87;99382.33;1679304;85;21922;-56
2023/07/27 03:57:50;;;;;;;19.05;11.95;;;;;;;21.85;63.96;99369.81;1679470;85;21413;-56
2023/07/27 04:00:55;;;;;;;16.48;12.20;;;;;;;21.96;64.07;99359.55;1641564;87;21380;-56
2023/07/27 04:04:01;;;;;;;20.55;11.53;;;;;;;22.09;64.23;99369.61;1679559;85;21775;-57
2023/07/27 04:07:06;;;;;;;17.48;12.25;;;;;;;22.20;64.25;99379.67;1679875;85;21476;-57
2023/07/27 04:10:13;;;;;;;21.93;12.25;;;;;;;22.31;64.30;99367.16;1641122;87;21249;-57
2023/07/27 04:13:20;;;;;;;16.27;11.78;;;;;;;22.40;64.38;99365.48;1678927;85;21425;-57
2023/07/27 04:16:26;;;;;;;16.30;10.85;;;;;;;22.48;64.48;99356.56;1678580;85;21920;-57
2023/07/27 04:19:30;;;;;;;15.00;11.28;;;;;;;22.57;64.53;99363.30;1647989;87;21229;-57
2023/07/27 04:22:35;;;;;;;17.70;11.03;;;;;;;22.65;64.54;99371.11;1648107;87;21253;-57
2023/07/27 04:25:41;;;;;;;16.85;10.63;;;;;;;22.76;64.67;99382.55;1648785;87;21234;-57
2023/07/27 04:28:47;;;;;;;16.77;10.55;;;;;;;22.91;64.79;99377.80;1649005;87;21781;-57
2023/07/27 04:31:54;;;;;;;15.23;10.15;;;;;;;23.08;64.81;99383.94;1648816;87;21257;-57
2023/07/27 04:35:00;;;;;;;16.57;10.98;;;;;;;23.28;64.89;99385.88;1637674;87;21238;-57
2023/07/27 04:38:07;;;;;;;17.75;10.82;;;;;;;23.47;64.95;99379.96;1628236;87;22196;-55
2023/07/27 04:41:13;;;;;;;16.00;9.83;;;;;;;23.64;64.95;99386.08;1628192;88;21822;-56
2023/07/27 04:44:19;;;;;;;15.48;10.40;;;;;;;23.80;64.98;99393.25;1630508;88;21250;-57
2023/07/27 04:47:24;;;;;;;16.52;10.45;;;;;;;23.94;64.92;99404.13;1611641;88;21286;-57
2023/07/27 04:50:29;;;;;;;16.07;10.25;;;;;;;24.01;64.84;99411.66;1630670;88;21241;-57
2023/07/27 04:53:35;;;;;;;19.30;11.55;;;;;;;24.06;64.84;99421.42;1627670;88;21261;-58
2023/07/27 04:56:39;;;;;;;11.90;9.40;;;;;;;24.11;64.86;99421.41;1628102;88;21269;-57
2023/07/27 04:59:45;;;;;;;14.73;10.10;;;;;;;24.13;64.85;99420.56;1623842;88;21325;-59
2023/07/27 05:02:53;;;;;;;16.02;10.60;;;;;;;24.18;64.82;99419.70;1618379;88;21821;-62
2023/07/27 05:06:00;;;;;;;27.20;14.13;;;;;;;24.21;64.91;99410.18;1618181;88;21834;-64
2023/07/27 05:09:05;;;;;;;13.15;9.10;;;;;;;24.28;64.89;99407.03;1630718;86;21218;-63
2023/07/27 05:12:13;;;;;;;13.32;9.40;;;;;;;24.31;64.90;99405.91;1630341;88;21802;-61
2023/07/27 05:15:20;;;;;;;13.70;9.83;;;;;;;24.37;64.91;99396.93;1608630;86;21266;-63
2023/07/27 05:18:26;;;;;;;12.35;8.45;;;;;;;24.43;64.99;99389.62;1625424;86;21235;-60
2023/07/27 05:21:33;;;;;;;13.43;8.90;;;;;;;24.49;64.96;99397.40;1642505;87;21378;-60
2023/07/27 05:24:42;;;;;;;13.72;8.63;;;;;;;24.49;64.86;99386.20;1646266;87;21763;-60
2023/07/27 05:27:48;;;;;;;15.45;9.25;;;;;;;24.50;64.91;99380.31;1622831;88;21260;-65
2023/07/27 05:30:54;;;;;;;10.93;7.75;;;;;;;24.54;65.01;99385.63;1634709;87;21414;-65
2023/07/27 05:34:01;;;;;;;14.63;9.08;;;;;;;24.61;65.08;99383.90;1649805;87;21252;-64
2023/07/27 05:37:09;;;;;;;11.12;7.92;;;;;;;24.68;65.03;99380.22;1640313;87;21894;-65
2023/07/27 05:40:17;;;;;;;17.82;9.38;;;;;;;24.72;64.98;99363.94;1649185;87;21232;-65
2023/07/27 05:43:22;;;;;;;13.90;8.30;;;;;;;24.77;64.99;99365.30;1653195;85;21386;-66
2023/07/27 05:46:28;;;;;;;13.00;8.73;;;;;;;24.84;65.03;99367.77;1648399;85;21263;-65
2023/07/27 05:49:34;;;;;;;16.45;9.33;;;;;;;24.95;65.07;99365.16;1647911;85;21385;-62
2023/07/27 05:52:43;;;;;;;15.28;9.33;;;;;;;25.03;65.12;99352.76;1645428;87;21228;-64
2023/07/27 05:55:50;;;;;;;14.38;8.63;;;;;;;25.15;65.11;99351.52;1647303;85;21253;-64
2023/07/27 05:58:57;;;;;;;11.88;8.80;;;;;;;25.25;65.12;99341.03;1646451;85;21311;-63
2023/07/27 06:02:03;;;;;;;15.95;8.95;;;;;;;25.36;65.10;99347.38;1643233;87;21255;-61
2023/07/27 06:05:11;;;;;;;14.90;9.33;;;;;;;25.46;65.06;99348.69;1645136;86;21798;-60
2023/07/27 06:08:17;;;;;;;13.68;8.65;;;;;;;25.59;65.07;99353.58;1662742;86;21398;-62
2023/07/27 06:11:23;;;;;;;13.50;9.88;;;;;;;25.71;65.06;99345.57;1648558;86;21243;-63
2023/07/27 06:14:28;;;;;;;14.78;8.63;;;;;;;25.85;65.01;99349.31;1647930;87;21275;-60
2023/07/27 06:17:33;;;;;;;18.23;9.53;;;;;;;25.93;64.88;99349.48;1648440;85;21340;-64
2023/07/27 06:20:39;;;;;;;18.45;10.72;;;;;;;26.03;64.82;99355.56;1649889;85;21287;-61
2023/07/27 06:23:44;;;;;;;13.35;9.28;;;;;;;26.07;64.72;99343.98;1656972;85;21235;-60
2023/07/27 06:26:51;;;;;;;17.50;9.00;;;;;;;26.12;64.67;99348.13;1641166;86;21312;-61
2023/07/27 06:29:58;;;;;;;14.90;9.35;;;;;;;26.19;64.67;99340.19;1627870;87;22254;-60
2023/07/27 06:33:06;;;;;;;14.75;9.53;;;;;;;26.28;64.63;99331.34;1649389;87;21273;-61
2023/07/27 06:36:17;;;;;;;14.20;9.38;;;;;;;26.39;64.65;99331.45;1649100;87;21750;-61
2023/07/27 06:39:23;;;;;;;14.30;10.58;;;;;;;26.54;64.68;99338.80;1648062;85;21237;-60
2023/07/27 06:42:28;;;;;;;17.67;10.95;;;;;;;26.67;64.63;99336.06;1623086;88;21757;-59
2023/07/27 06:45:34;;;;;;;14.38;9.28;;;;;;;26.78;64.53;99331.98;1623331;88;21332;-61
2023/07/27 06:48:41;;;;;;;16.75;9.58;;;;;;;26.90;64.56;99335.12;1623422;88;21868;-62
2023/07/27 06:51:40;;;;;;;13.98;9.08;;;;;;;27.00;64.54;99325.12;1623307;88;21777;-62
2023/07/27 06:54:33;;;;;;;14.05;8.65;;;;;;;27.10;64.49;99328.31;1588198;90;21287;-60
2023/07/27 06:57:41;;;;;;;14.93;8.25;;;;;;;27.19;64.43;99338.53;1623307;88;21319;-60
2023/07/27 07:00:48;;;;;;;13.98;8.78;;;;;;;27.25;64.24;99347.69;1634232;86;21832;-60
2023/07/27 07:03:55;;;;;;;12.00;8.15;;;;;;;27.28;64.18;99340.91;1644058;86;21812;-61
2023/07/27 07:07:04;;;;;;;16.48;8.55;;;;;;;27.36;64.24;99349.19;1649159;85;21289;-62
2023/07/27 07:10:10;;;;;;;13.10;8.65;;;;;;;27.44;64.17;99337.23;1649110;87;21241;-57
2023/07/27 07:13:16;;;;;;;14.47;8.20;;;;;;;27.51;64.15;99332.85;1600274;89;21255;-56
2023/07/27 07:16:22;;;;;;;12.90;8.00;;;;;;;27.63;64.16;99329.52;1623317;88;21348;-56
2023/07/27 07:19:28;;;;;;;13.30;8.45;;;;;;;27.72;64.06;99330.45;1622820;88;21859;-57
2023/07/27 07:22:34;;;;;;;13.38;8.30;;;;;;;27.80;63.92;99338.16;1644647;86;21258;-56
2023/07/27 07:25:41;;;;;;;13.48;8.30;;;;;;;27.85;63.92;99345.94;1663261;86;21278;-56
2023/07/27 07:28:48;;;;;;;12.10;8.25;;;;;;;27.91;63.79;99344.45;1661374;84;21759;-56
2023/07/27 07:31:54;;;;;;;13.30;8.23;;;;;;;27.94;63.73;99335.38;1662432;86;21259;-57
2023/07/27 07:34:53;;;;;;;14.23;8.38;;;;;;;27.99;63.71;99345.13;1666984;84;21249;-57
2023/07/27 07:38:02;;;;;;;15.40;8.53;;;;;;;28.04;63.70;99343.58;1660219;86;21255;-57
2023/07/27 07:41:08;;;;;;;11.75;8.00;;;;;;;28.13;63.67;99355.78;1661557;86;21227;-57
2023/07/27 07:44:08;;;;;;;11.28;7.72;;;;;;;28.25;63.66;99336.35;1662602;84;21310;-58
2023/07/27 07:47:02;;;;;;;16.32;8.53;;;;;;;28.34;63.52;99337.25;1662890;86;21559;-59
2023/07/27 07:49:48;;;;;;;13.32;8.08;;;;;;;28.38;63.30;99345.34;1658547;86;21286;-56
2023/07/27 07:52:40;;;;;;;11.65;8.28;;;;;;;28.39;63.17;99342.77;1672247;84;21270;-55
2023/07/27 07:55:47;;;;;;;28.62;9.20;;;;;;;28.60;62.93;99343.42;1685264;85;21255;-57
2023/07/27 07:58:53;;;;;;;20.20;8.73;;;;;;;28.60;62.93;99343.42;1641147;86;21222;-58
2023/07/27 08:02:00;;;;;;;12.13;7.78;;;;;;;28.67;62.59;99330.30;1663706;84;21666;-58
2023/07/27 08:05:07;;;;;;;14.00;8.00;;;;;;;28.67;62.59;99330.30;1644784;86;22272;-57
2023/07/27 08:08:13;;;;;;;14.43;9.20;;;;;;;28.62;62.28;99336.06;1654623;86;21314;-56
2023/07/27 08:11:19;;;;;;;12.98;7.60;;;;;;;28.59;62.18;99333.89;1646253;84;21663;-56
2023/07/27 08:14:24;;;;;;;13.70;7.60;;;;;;;28.58;62.19;99340.66;1690850;84;21767;-56
2023/07/27 08:17:31;;;;;;;14.60;8.08;;;;;;;28.63;61.89;99329.27;1690861;85;21482;-55
2023/07/27 08:20:40;;;;;;;14.65;7.87;;;;;;;28.63;61.89;99329.27;1681891;84;21910;-57
2023/07/27 08:23:47;;;;;;;13.80;10.78;;;;;;;28.65;61.63;99333.45;1608887;88;21755;-56
2023/07/27 08:26:55;;;;;;;11.22;7.60;;;;;;;28.71;61.92;99339.20;1632226;86;21237;-56
2023/07/27 08:30:00;;;;;;;12.30;8.15;;;;;;;28.80;61.82;99335.02;1632602;87;21928;-58
2023/07/27 08:33:06;;;;;;;12.95;7.60;;;;;;;28.88;61.79;99335.66;1635439;87;21667;-57
2023/07/27 08:36:10;;;;;;;12.58;7.20;;;;;;;28.95;61.50;99331.27;1633912;87;21274;-58
2023/07/27 08:39:16;;;;;;;12.80;7.12;;;;;;;29.01;61.39;99336.17;1635956;87;21230;-57
2023/07/27 08:42:22;;;;;;;15.23;7.83;;;;;;;29.04;61.20;99338.34;1609131;89;21588;-57
2023/07/27 08:45:29;;;;;;;14.68;7.80;;;;;;;29.08;61.04;99323.91;1640202;86;21266;-57
2023/07/27 08:48:36;;;;;;;11.83;7.35;;;;;;;29.16;61.04;99307.02;1635903;87;21234;-56
2023/07/27 08:51:41;;;;;;;15.68;7.17;;;;;;;29.24;60.98;99313.86;1636091;87;21759;-57
2023/07/27 08:54:48;;;;;;;11.18;6.72;;;;;;;29.27;60.74;99322.27;1636672;87;21278;-56
2023/07/27 08:57:53;;;;;;;14.03;8.45;;;;;;;29.19;60.57;99331.75;1635401;87;21244;-55
2023/07/27 09:00:58;;;;;;;11.63;7.53;;;;;;;29.14;60.46;99322.61;1625737;86;21731;-56
2023/07/27 09:04:05;;;;;;;10.65;7.47;;;;;;;29.10;60.44;99342.72;1608841;89;21789;-55
2023/07/27 09:07:14;;;;;;;13.53;7.22;;;;;;;29.04;60.42;99355.26;1608577;89;21652;-56
2023/07/27 09:10:18;;;;;;;10.60;7.37;;;;;;;29.00;60.42;99354.25;1550445;91;21236;-55
2023/07/27 09:13:24;;;;;;;17.00;8.75;;;;;;;29.00;60.38;99340.16;1629763;87;21226;-57
2023/07/27 09:16:29;;;;;;;14.83;8.45;;;;;;;29.12;60.37;99320.69;1635129;87;21381;-56
2023/07/27 09:19:34;;;;;;;12.33;7.47;;;;;;;29.29;60.45;99320.77;1601432;89;21247;-55
2023/07/27 09:22:42;;;;;;;10.60;7.05;;;;;;;29.46;60.40;99302.55;1636044;84;21767;-56
2023/07/27 09:25:53;;;;;;;14.13;7.53;;;;;;;29.58;60.19;99311.77;1605039;88;21230;-55
2023/07/27 09:28:58;;;;;;;12.10;7.37;;;;;;;29.67;59.91;99324.79;1620970;88;21243;-55
2023/07/27 09:32:08;;;;;;;11.68;7.12;;;;;;;29.80;59.76;99323.84;1621958;88;21234;-55
2023/07/27 09:35:17;;;;;;;11.73;7.12;;;;;;;29.94;59.61;99308.20;1589334;90;21253;-55
2023/07/27 09:38:28;;;;;;;14.15;6.55;;;;;;;30.04;59.39;99312.95;1606177;88;21222;-55
2023/07/27 09:41:33;;;;;;;13.98;7.20;;;;;;;30.05;59.05;99298.27;1623007;87;21234;-55
2023/07/27 09:44:40;;;;;;;13.28;7.55;;;;;;;30.01;58.88;99292.44;1608570;87;21263;-55
2023/07/27 09:47:49;;;;;;;12.15;6.80;;;;;;;29.96;58.66;99303.88;1605018;88;21285;-55
2023/07/27 09:50:56;;;;;;;12.23;6.78;;;;;;;29.92;58.49;99283.70;1621817;88;21259;-55
2023/07/27 09:54:04;;;;;;;11.08;6.70;;;;;;;29.93;58.42;99272.08;1622972;88;21358;-56
2023/07/27 09:57:09;;;;;;;9.58;6.83;;;;;;;29.89;58.28;99269.65;1621084;87;21811;-55
2023/07/27 10:00:16;;;;;;;10.32;6.75;;;;;;;29.87;58.24;99275.39;1621357;87;21211;-55
2023/07/27 10:03:21;;;;;;;14.20;7.05;;;;;;;29.93;58.22;99286.77;1611213;87;21270;-55
2023/07/27 10:06:28;;;;;;;11.70;8.28;;;;;;;30.10;58.29;99291.86;1619944;87;21404;-57
2023/07/27 10:09:36;;;;;;;15.93;7.08;;;;;;;30.25;58.10;99299.90;1621384;87;21246;-56
2023/07/27 10:12:41;;;;;;;13.70;6.70;;;;;;;30.27;57.70;99305.21;1622148;88;21262;-56
2023/07/27 10:15:49;;;;;;;10.38;6.28;;;;;;;30.22;57.47;99299.72;1621970;87;21246;-55
2023/07/27 10:18:55;;;;;;;11.73;6.97;;;;;;;30.17;57.22;99299.27;1587029;90;22091;-56
2023/07/27 10:22:00;;;;;;;54.55;25.23;;;;;;;30.23;57.28;99295.16;1609214;88;21243;-56
2023/07/27 10:25:07;;;;;;;13.10;7.30;;;;;;;30.30;57.04;99295.47;1633896;84;21255;-58
2023/07/27 10:28:11;;;;;;;17.10;6.78;;;;;;;30.34;56.95;99302.13;1619851;87;21250;-56
2023/07/27 10:31:31;;;;;;;15.72;7.28;;;;;;;30.45;56.82;99292.73;1662120;85;21393;-57
2023/07/27 10:34:36;;;;;;;14.80;7.33;;;;;;;30.61;56.82;99296.72;1617806;87;21269;-56
2023/07/27 10:38:02;;;;;;;15.70;7.05;;;;;;;30.86;56.84;99297.91;1628061;87;21305;-57
2023/07/27 10:41:29;;;;;;;11.45;7.33;;;;;;;31.04;56.67;99302.34;1652339;86;21383;-57
2023/07/27 10:45:06;;;;;;;11.03;7.28;;;;;;;31.15;56.44;99303.64;1661339;85;21208;-61
2023/07/27 10:48:11;;;;;;;13.68;7.65;;;;;;;31.20;56.19;99304.88;1666396;85;21475;-55
2023/07/27 10:51:22;;;;;;;12.53;7.10;;;;;;;31.26;56.18;99294.45;1656012;86;21448;-58
2023/07/27 10:54:27;;;;;;;10.63;7.20;;;;;;;31.38;56.07;99292.37;1655756;86;21405;-57
2023/07/27 10:57:38;;;;;;;14.93;7.72;;;;;;;31.35;55.71;99294.48;1654475;86;21233;-57
2023/07/27 11:00:45;;;;;;;14.30;7.53;;;;;;;31.28;55.54;99283.64;1635669;86;21259;-56
2023/07/27 11:03:56;;;;;;;13.58;7.75;;;;;;;31.32;55.51;99282.39;1653930;86;21437;-56
2023/07/27 11:07:03;;;;;;;10.80;6.95;;;;;;;31.39;55.35;99286.38;1652805;86;21244;-57
2023/07/27 11:10:20;;;;;;;16.42;8.05;;;;;;;31.51;55.33;99288.47;1656157;85;21527;-57
2023/07/27 11:13:31;;;;;;;12.80;7.70;;;;;;;31.64;55.16;99279.77;1660715;85;21245;-56
2023/07/27 11:16:42;;;;;;;15.55;7.45;;;;;;;31.72;54.91;99277.47;1632788;85;21294;-56
2023/07/27 11:19:57;;;;;;;13.45;7.67;;;;;;;31.83;54.80;99275.91;1651674;85;21997;-60
2023/07/27 11:23:04;;;;;;;11.75;6.97;;;;;;;31.95;54.57;99277.44;1659722;85;21282;-60
2023/07/27 11:26:10;;;;;;;11.50;7.05;;;;;;;32.03;54.26;99272.91;1631776;84;21254;-58
2023/07/27 11:29:16;;;;;;;12.80;7.50;;;;;;;32.15;53.98;99278.64;1592625;88;21290;-59
2023/07/27 11:32:22;;;;;;;10.48;7.28;;;;;;;32.18;53.51;99275.12;1621703;86;21609;-59
2023/07/27 11:35:28;;;;;;;12.18;7.67;;;;;;;32.18;53.16;99279.36;1619601;87;21265;-59
2023/07/27 11:38:37;;;;;;;12.33;6.90;;;;;;;32.12;52.81;99281.33;1624278;86;21218;-58
2023/07/27 11:41:44;;;;;;;12.03;7.33;;;;;;;32.09;52.65;99282.86;1621263;88;21223;-59
2023/07/27 11:44:51;;;;;;;14.70;6.90;;;;;;;32.13;52.72;99287.25;1620721;86;21285;-59
2023/07/27 11:47:59;;;;;;;11.35;7.28;;;;;;;32.19;52.50;99278.79;1624316;86;21599;-59
2023/07/27 11:51:06;;;;;;;12.70;6.78;;;;;;;32.25;52.31;99278.81;1640827;86;21224;-60
2023/07/27 11:54:13;;;;;;;11.00;6.85;;;;;;;32.32;52.06;99279.92;1647188;86;21300;-60
2023/07/27 11:57:24;;;;;;;12.00;6.50;;;;;;;32.22;51.76;99273.27;1635879;85;21286;-61
2023/07/27 12:00:29;;;;;;;11.95;7.40;;;;;;;32.18;51.70;99276.53;1637652;86;21258;-60
2023/07/27 12:03:36;;;;;;;11.15;6.83;;;;;;;32.18;51.57;99262.37;1608944;86;21224;-61
2023/07/27 12:06:43;;;;;;;13.53;7.42;;;;;;;32.09;51.35;99267.28;1611459;86;21814;-59
2023/07/27 12:09:53;;;;;;;11.55;7.20;;;;;;;31.98;51.20;99275.94;1622435;86;21306;-61
2023/07/27 12:13:11;;;;;;;14.15;8.88;;;;;;;31.82;51.03;99276.25;1633029;86;21491;-60
2023/07/27 12:16:24;;;;;;;17.65;9.55;;;;;;;31.77;51.01;99270.78;1626416;85;21270;-59
2023/07/27 12:19:41;;;;;;;13.45;7.70;;;;;;;31.79;51.06;99274.11;1620004;86;21266;-62
2023/07/27 12:22:50;;;;;;;10.82;7.20;;;;;;;31.81;51.15;99271.16;1621391;86;21629;-61
2023/07/27 12:26:01;;;;;;;12.40;7.42;;;;;;;31.78;51.09;99269.60;1628934;85;21250;-61
2023/07/27 12:29:09;;;;;;;12.58;7.33;;;;;;;31.69;50.93;99270.25;1634528;85;21754;-61
2023/07/27 12:32:18;;;;;;;14.07;6.60;;;;;;;31.54;50.70;99267.41;1634531;86;21354;-58
2023/07/27 12:35:25;;;;;;;12.40;7.25;;;;;;;31.44;50.57;99268.38;1638380;86;21227;-61
2023/07/27 12:38:30;;;;;;;13.88;7.55;;;;;;;31.32;50.43;99266.84;1629061;87;21239;-60
2023/07/27 12:41:37;;;;;;;15.43;7.40;;;;;;;31.21;50.36;99253.63;1625525;88;21244;-60
2023/07/27 12:44:44;;;;;;;10.78;7.37;;;;;;;31.11;50.35;99251.77;1633633;86;21263;-61
2023/07/27 12:47:51;;;;;;;15.63;8.68;;;;;;;30.99;50.38;99254.45;1632811;86;21865;-60
2023/07/27 12:50:58;;;;;;;13.15;8.15;;;;;;;30.91;50.46;99259.54;1628227;87;21236;-60
2023/07/27 12:54:06;;;;;;;15.40;8.78;;;;;;;30.99;50.70;99272.25;1628016;87;21234;-60
2023/07/27 12:57:12;;;;;;;14.33;8.93;;;;;;;31.01;50.81;99268.52;1576167;91;21279;-62
2023/07/27 13:00:20;;;;;;;12.10;8.88;;;;;;;31.11;50.91;99257.42;1628122;86;21234;-58
2023/07/27 13:03:27;;;;;;;15.10;8.15;;;;;;;31.17;50.93;99256.06;1625096;86;21234;-59
2023/07/27 13:06:34;;;;;;;13.65;8.45;;;;;;;31.15;50.92;99254.15;1603330;88;21269;-63
2023/07/27 13:09:40;;;;;;;11.45;8.18;;;;;;;31.09;50.84;99263.42;1638224;86;21298;-60
2023/07/27 13:12:50;;;;;;;17.30;8.55;;;;;;;30.99;50.80;99267.17;1648235;86;21465;-60
2023/07/27 13:15:56;;;;;;;12.93;8.18;;;;;;;30.88;50.84;99272.36;1608591;88;21791;-60
2023/07/27 13:19:02;;;;;;;12.40;7.58;;;;;;;30.80;50.88;99266.14;1656357;86;21402;-59
2023/07/27 13:22:08;;;;;;;13.65;8.13;;;;;;;30.68;50.80;99261.13;1624604;86;21285;-61
2023/07/27 13:25:16;;;;;;;12.25;7.58;;;;;;;30.58;50.87;99264.90;1601084;88;21332;-58
2023/07/27 13:28:22;;;;;;;10.43;8.20;;;;;;;30.48;50.98;99273.13;1635963;82;21307;-60
2023/07/27 13:31:30;;;;;;;10.38;7.67;;;;;;;30.42;51.07;99273.06;1597369;89;21232;-60
2023/07/27 13:34:38;;;;;;;11.10;7.12;;;;;;;30.38;51.17;99281.12;1633489;87;21279;-62
2023/07/27 13:37:44;;;;;;;9.33;6.60;;;;;;;30.32;51.30;99276.78;1583645;90;21287;-58
2023/07/27 13:40:50;;;;;;;13.10;8.10;;;;;;;30.32;51.29;99277.62;1644722;86;21799;-59
2023/07/27 13:43:57;;;;;;;9.38;6.55;;;;;;;30.32;51.34;99271.97;1644344;86;21302;-61
2023/07/27 13:47:02;;;;;;;9.83;6.97;;;;;;;30.31;51.34;99271.73;1643342;86;21379;-59
2023/07/27 13:50:09;;;;;;;7.62;6.28;;;;;;;30.31;51.35;99270.32;1642585;87;21783;-62
2023/07/27 13:53:14;;;;;;;18.23;8.60;;;;;;;30.33;51.49;99268.00;1620515;88;21294;-59
2023/07/27 13:56:20;;;;;;;11.15;6.50;;;;;;;30.35;51.53;99274.12;1627436;88;21322;-59
2023/07/27 13:59:26;;;;;;;12.50;6.58;;;;;;;30.36;51.60;99272.98;1623735;87;21271;-59
2023/07/27 14:02:31;;;;;;;14.53;6.97;;;;;;;30.47;51.72;99270.07;1620938;88;21212;-59
2023/07/27 14:05:37;;;;;;;8.93;5.95;;;;;;;30.52;51.60;99271.89;1634584;86;21267;-58
2023/07/27 14:08:43;;;;;;;13.28;6.40;;;;;;;30.44;51.42;99274.98;1621191;88;21251;-59
2023/07/27 14:11:49;;;;;;;11.45;6.30;;;;;;;30.29;51.40;99278.28;1601302;88;21315;-59
2023/07/27 14:14:55;;;;;;;10.40;6.40;;;;;;;30.19;51.41;99271.52;1640468;86;21283;-61
2023/07/27 14:18:01;;;;;;;11.97;6.40;;;;;;;30.07;51.43;99277.00;1631352;87;21975;-59
2023/07/27 14:21:08;;;;;;;8.83;6.28;;;;;;;29.96;51.46;99278.47;1633125;87;21912;-58
2023/07/27 14:24:16;;;;;;;10.43;6.42;;;;;;;29.85;51.55;99277.13;1629237;86;21239;-59
2023/07/27 14:27:23;;;;;;;10.05;6.78;;;;;;;29.73;51.56;99278.92;1605697;87;21245;-59
2023/07/27 14:30:30;;;;;;;11.05;6.95;;;;;;;29.64;51.73;99294.41;1602502;85;21267;-61